createdAt,value
2022-09-06T00:02:03.459Z,4.07
2022-09-06T00:05:09.687Z,4.07
2022-09-06T00:08:14.823Z,3.97
2022-09-06T00:11:20.691Z,4.57
2022-09-06T00:14:24.423Z,4.20
2022-09-06T00:17:28.032Z,4.20
2022-09-06T00:20:33.421Z,4.13
2022-09-06T00:23:37.046Z,4.30
2022-09-06T00:26:42.155Z,4.10
2022-09-06T00:29:45.778Z,4.27
2022-09-06T00:32:49.482Z,4.30
2022-09-06T00:36:00.274Z,5.27
2022-09-06T00:39:04.430Z,4.80
2022-09-06T00:42:12.904Z,4.30
2022-09-06T00:45:16.879Z,5.10
2022-09-06T00:48:22.399Z,4.13
2022-09-06T00:51:30.057Z,4.90
2022-09-06T00:54:34.203Z,4.20
2022-09-06T00:57:40.173Z,4.70
2022-09-06T01:00:44.899Z,4.60
2022-09-06T01:03:49.274Z,4.03
2022-09-06T01:07:07.095Z,4.33
2022-09-06T01:10:41.759Z,4.60
2022-09-06T01:14:01.299Z,4.30
2022-09-06T01:17:19.675Z,4.60
2022-09-06T01:20:39.168Z,4.87
2022-09-06T01:24:36.511Z,4.60
2022-09-06T01:28:26.945Z,4.60
2022-09-06T01:31:42.887Z,4.53
2022-09-06T01:34:55.732Z,4.57
2022-09-06T01:38:01.734Z,4.77
2022-09-06T01:41:05.661Z,4.90
2022-09-06T01:44:10.803Z,4.67
2022-09-06T01:47:30.977Z,5.20
2022-09-06T01:50:59.975Z,5.17
2022-09-06T01:54:27.503Z,5.00
2022-09-06T01:57:57.826Z,4.90
2022-09-06T02:01:10.162Z,4.87
2022-09-06T02:04:24.156Z,4.47
2022-09-06T02:07:32.314Z,5.50
2022-09-06T02:10:44.636Z,4.77
2022-09-06T02:13:53.756Z,4.80
2022-09-06T02:17:02.250Z,4.83
2022-09-06T02:20:14.263Z,5.10
2022-09-06T02:23:21.756Z,4.87
2022-09-06T02:26:31.014Z,4.70
2022-09-06T02:29:36.536Z,4.40
2022-09-06T02:32:52.099Z,5.10
2022-09-06T02:35:57.406Z,5.13
2022-09-06T02:39:02.106Z,5.37
2022-09-06T02:42:07.243Z,4.50
2022-09-06T02:45:11.788Z,5.37
2022-09-06T02:48:17.471Z,5.47
2022-09-06T02:51:21.182Z,5.30
2022-09-06T02:54:25.161Z,4.97
2022-09-06T02:57:28.942Z,5.00
2022-09-06T03:00:32.981Z,5.40
2022-09-06T03:03:38.132Z,5.80
2022-09-06T03:06:41.736Z,5.00
2022-09-06T03:09:45.396Z,5.40
2022-09-06T03:12:49.774Z,5.53
2022-09-06T03:15:54.396Z,5.03
2022-09-06T03:18:59.483Z,4.90
2022-09-06T03:22:03.107Z,5.20
2022-09-06T03:25:08.559Z,4.77
2022-09-06T03:28:12.879Z,4.87
2022-09-06T03:31:16.637Z,5.30
2022-09-06T03:34:21.678Z,4.80
2022-09-06T03:37:25.369Z,5.03
2022-09-06T03:40:29.338Z,5.20
2022-09-06T03:43:34.039Z,5.57
2022-09-06T03:46:37.862Z,4.53
2022-09-06T03:49:42.930Z,4.37
2022-09-06T03:52:46.668Z,4.77
2022-09-06T03:55:53.093Z,4.80
2022-09-06T03:58:56.753Z,5.07
2022-09-06T04:02:00.471Z,4.87
2022-09-06T04:05:06.507Z,4.53
2022-09-06T04:08:10.137Z,5.03
2022-09-06T04:11:13.901Z,4.80
2022-09-06T04:14:17.703Z,5.30
2022-09-06T04:17:22.406Z,5.30
2022-09-06T04:20:27.529Z,5.90
2022-09-06T04:23:34.288Z,5.47
2022-09-06T04:26:40.257Z,5.13
2022-09-06T04:29:44.298Z,5.40
2022-09-06T04:32:47.960Z,5.60
2022-09-06T04:35:54.147Z,5.70
2022-09-06T04:38:57.852Z,5.47
2022-09-06T04:42:01.687Z,5.40
2022-09-06T04:45:06.648Z,5.17
2022-09-06T04:48:10.656Z,5.07
2022-09-06T04:51:15.729Z,4.97
2022-09-06T04:54:19.714Z,4.90
2022-09-06T04:57:24.014Z,4.93
2022-09-06T05:00:28.265Z,5.10
2022-09-06T05:03:32.006Z,5.13
2022-09-06T05:06:38.204Z,4.60
2022-09-06T05:09:41.842Z,4.17
2022-09-06T05:12:45.482Z,4.23
2022-09-06T05:15:49.237Z,4.27
2022-09-06T05:18:52.964Z,4.43
2022-09-06T05:21:57.989Z,4.17
2022-09-06T05:25:01.601Z,4.27
2022-09-06T05:28:05.298Z,3.93
2022-09-06T05:31:12.017Z,4.07
2022-09-06T05:34:15.781Z,4.23
2022-09-06T05:37:20.771Z,4.33
2022-09-06T05:40:24.470Z,4.50
2022-09-06T05:43:28.123Z,4.27
2022-09-06T05:46:31.891Z,4.60
2022-09-06T05:49:46.316Z,4.16
2022-09-06T05:52:51.434Z,3.90
2022-09-06T05:55:55.280Z,3.97
2022-09-06T05:58:59.023Z,4.33
2022-09-06T06:02:07.048Z,3.90
2022-09-06T06:05:11.243Z,4.50
2022-09-06T06:08:16.383Z,4.00
2022-09-06T06:11:21.866Z,4.03
2022-09-06T06:14:25.720Z,4.10
2022-09-06T06:17:29.517Z,4.47
2022-09-06T06:20:33.289Z,4.40
2022-09-06T06:23:38.523Z,5.07
2022-09-06T06:26:42.247Z,3.93
2022-09-06T06:29:45.936Z,4.23
2022-09-06T06:32:49.575Z,4.60
2022-09-06T06:36:01.183Z,4.17
2022-09-06T06:39:09.515Z,4.13
2022-09-06T06:42:13.783Z,3.97
2022-09-06T06:45:17.614Z,4.30
2022-09-06T06:48:21.953Z,3.97
2022-09-06T06:51:28.327Z,3.93
2022-09-06T06:54:33.440Z,3.90
2022-09-06T06:57:37.053Z,3.67
2022-09-06T07:00:41.342Z,3.73
2022-09-06T07:03:45.103Z,4.00
2022-09-06T07:10:33.565Z,3.30
2022-09-06T07:13:38.305Z,3.73
2022-09-06T07:16:42.274Z,4.00
2022-09-06T07:26:36.239Z,3.60
2022-09-06T07:29:40.495Z,3.70
2022-09-06T07:32:44.198Z,3.53
2022-09-06T07:35:58.038Z,4.03
2022-09-06T07:39:01.893Z,3.30
2022-09-06T07:42:07.654Z,3.30
2022-09-06T07:45:12.038Z,3.80
2022-09-06T07:48:15.677Z,3.30
2022-09-06T07:51:21.764Z,3.03
2022-09-06T07:54:30.479Z,3.47
2022-09-06T07:57:36.181Z,3.20
2022-09-06T08:00:41.463Z,3.53
2022-09-06T08:03:47.074Z,3.60
2022-09-06T08:10:18.452Z,3.30
2022-09-06T08:13:23.928Z,3.13
2022-09-06T08:16:30.938Z,3.20
2022-09-06T08:19:35.604Z,3.20
2022-09-06T08:22:39.463Z,3.30
2022-09-06T08:25:43.112Z,3.90
2022-09-06T08:28:48.657Z,3.30
2022-09-06T08:31:52.327Z,3.20
2022-09-06T08:34:56.144Z,3.67
2022-09-06T08:37:59.915Z,3.40
2022-09-06T08:41:17.900Z,3.70
2022-09-06T08:47:52.698Z,3.60
2022-09-06T08:51:25.314Z,3.70
2022-09-06T08:54:38.552Z,3.00
2022-09-06T08:58:07.328Z,3.17
2022-09-06T09:01:16.694Z,3.40
2022-09-06T09:04:27.352Z,3.57
2022-09-06T09:07:44.332Z,3.40
2022-09-06T09:10:52.032Z,3.23
2022-09-06T09:14:04.154Z,3.10
2022-09-06T09:17:21.817Z,3.93
2022-09-06T09:20:25.468Z,3.20
2022-09-06T09:23:31.031Z,3.57
2022-09-06T09:26:50.147Z,3.57
2022-09-06T09:33:31.646Z,3.53
2022-09-06T09:36:35.319Z,3.40
2022-09-06T09:39:41.726Z,3.67
2022-09-06T09:42:46.188Z,2.90
2022-09-06T09:46:13.284Z,3.53
2022-09-06T09:49:31.084Z,3.33
2022-09-06T09:52:34.728Z,3.83
2022-09-06T09:55:39.919Z,3.20
2022-09-06T09:58:44.087Z,3.93
2022-09-06T10:01:48.255Z,3.60
2022-09-06T10:05:01.620Z,4.40
2022-09-06T10:08:06.398Z,4.87
2022-09-06T10:11:15.040Z,4.47
2022-09-06T10:14:31.267Z,4.60
2022-09-06T10:17:38.135Z,4.43
2022-09-06T10:20:50.408Z,5.07
2022-09-06T10:24:28.452Z,5.07
2022-09-06T10:27:33.314Z,4.90
2022-09-06T10:30:47.177Z,4.73
2022-09-06T10:34:17.754Z,5.00
2022-09-06T10:37:46.248Z,5.10
2022-09-06T10:41:09.023Z,4.73
2022-09-06T10:44:37.498Z,4.97
2022-09-06T10:48:01.586Z,4.23
2022-09-06T10:51:18.720Z,4.30
2022-09-06T10:54:26.189Z,4.47
2022-09-06T11:01:06.815Z,4.50
2022-09-06T11:04:21.741Z,4.50
2022-09-06T11:07:31.335Z,4.73
2022-09-06T11:10:40.398Z,4.10
2022-09-06T11:13:44.110Z,4.40
2022-09-06T11:16:57.692Z,4.40
2022-09-06T11:20:10.388Z,4.37
2022-09-06T11:23:42.160Z,4.60
2022-09-06T11:27:02.829Z,4.70
2022-09-06T11:30:08.283Z,4.40
2022-09-06T11:33:24.883Z,4.90
2022-09-06T11:36:38.027Z,4.70
2022-09-06T11:43:19.983Z,4.90
2022-09-06T11:47:01.746Z,5.00
2022-09-06T11:50:53.362Z,5.87
2022-09-06T11:54:24.381Z,5.00
2022-09-06T11:57:28.439Z,5.80
2022-09-06T12:00:34.003Z,5.20
2022-09-06T12:04:07.837Z,4.50
2022-09-06T12:07:14.785Z,5.20
2022-09-06T12:10:56.783Z,5.10
2022-09-06T12:14:04.134Z,5.10
2022-09-06T12:17:47.999Z,5.30
2022-09-06T12:21:04.511Z,4.63
2022-09-06T12:24:31.544Z,4.73
2022-09-06T12:27:39.275Z,4.83
2022-09-06T12:30:46.017Z,4.57
2022-09-06T12:33:52.488Z,4.70
2022-09-06T12:37:00.327Z,4.23
2022-09-06T12:40:09.108Z,4.80
2022-09-06T12:43:16.967Z,5.33
2022-09-06T12:46:20.846Z,4.80
2022-09-06T12:49:25.856Z,4.93
2022-09-06T12:52:29.622Z,4.67
2022-09-06T12:55:37.257Z,4.20
2022-09-06T12:58:41.055Z,5.00
2022-09-06T13:01:54.481Z,4.47
2022-09-06T13:05:06.656Z,5.13
2022-09-06T13:08:16.651Z,4.80
2022-09-06T13:11:29.427Z,4.37
2022-09-06T13:14:35.347Z,4.37
2022-09-06T13:17:40.180Z,4.60
2022-09-06T13:20:45.171Z,4.50
2022-09-06T13:23:51.475Z,4.23
2022-09-06T13:26:55.663Z,4.40
2022-09-06T13:30:02.436Z,4.00
2022-09-06T13:33:08.354Z,4.03
2022-09-06T13:36:32.527Z,4.17
2022-09-06T13:39:38.629Z,3.50
2022-09-06T13:42:42.287Z,3.70
2022-09-06T13:45:47.282Z,3.77
2022-09-06T13:48:50.862Z,3.70
2022-09-06T13:52:01.359Z,3.87
2022-09-06T13:55:05.272Z,4.33
2022-09-06T13:58:09.235Z,4.30
2022-09-06T14:01:14.303Z,3.93
2022-09-06T14:04:21.957Z,4.43
2022-09-06T14:07:27.262Z,5.07
2022-09-06T14:10:31.032Z,4.50
2022-09-06T14:13:34.759Z,4.30
2022-09-06T14:16:38.987Z,4.57
2022-09-06T14:19:43.260Z,5.07
2022-09-06T14:22:49.044Z,4.77
2022-09-06T14:25:57.432Z,4.93
2022-09-06T14:29:01.446Z,4.17
2022-09-06T14:32:05.373Z,4.97
2022-09-06T14:35:10.011Z,4.60
2022-09-06T14:38:15.299Z,4.17
2022-09-06T14:41:20.880Z,4.60
2022-09-06T14:44:24.749Z,4.20
2022-09-06T14:47:28.902Z,4.50
2022-09-06T14:50:32.579Z,4.40
2022-09-06T14:53:41.188Z,4.57
2022-09-06T14:56:45.284Z,4.60
2022-09-06T14:59:49.056Z,4.20
2022-09-06T15:02:52.780Z,4.60
2022-09-06T15:05:56.488Z,5.00
2022-09-06T15:09:01.764Z,4.50
2022-09-06T15:12:06.035Z,4.80
2022-09-06T15:15:10.978Z,4.47
2022-09-06T15:18:14.972Z,5.03
2022-09-06T15:21:19.207Z,4.90
2022-09-06T15:24:24.873Z,4.50
2022-09-06T15:27:29.550Z,4.33
2022-09-06T15:30:33.273Z,4.73
2022-09-06T15:33:39.123Z,4.30
2022-09-06T15:36:42.842Z,5.27
2022-09-06T15:39:47.946Z,4.60
2022-09-06T15:42:51.759Z,4.87
2022-09-06T15:45:55.558Z,4.17
2022-09-06T15:48:59.415Z,4.60
2022-09-06T15:52:06.073Z,4.60
2022-09-06T15:55:28.636Z,5.03
2022-09-06T15:58:33.296Z,4.33
2022-09-06T16:01:37.532Z,4.20
2022-09-06T16:04:41.833Z,3.80
2022-09-06T16:07:45.590Z,4.50
2022-09-06T16:10:50.684Z,4.27
2022-09-06T16:13:54.827Z,4.50
2022-09-06T16:16:58.688Z,4.60
2022-09-06T16:20:03.555Z,6.57
2022-09-06T16:23:07.336Z,4.10
2022-09-06T16:26:12.463Z,4.47
2022-09-06T16:29:19.168Z,4.10
2022-09-06T16:32:22.898Z,4.60
2022-09-06T16:35:26.663Z,4.40
2022-09-06T16:38:31.859Z,4.73
2022-09-06T16:41:41.338Z,4.57
2022-09-06T16:44:57.681Z,3.83
2022-09-06T16:48:01.349Z,4.30
2022-09-06T16:51:16.935Z,4.30
2022-09-06T16:54:21.498Z,4.93
2022-09-06T16:57:26.655Z,4.87
2022-09-06T17:00:31.039Z,4.30
2022-09-06T17:03:36.771Z,4.50
2022-09-06T17:06:44.699Z,4.40
2022-09-06T17:09:48.672Z,3.80
2022-09-06T17:12:53.850Z,5.30
2022-09-06T17:16:17.153Z,3.57
2022-09-06T17:19:22.776Z,3.80
2022-09-06T17:22:26.619Z,3.67
2022-09-06T17:25:30.265Z,4.37
2022-09-06T17:28:37.369Z,4.60
2022-09-06T17:31:41.132Z,4.13
2022-09-06T17:34:44.893Z,3.83
2022-09-06T17:37:48.712Z,4.50
2022-09-06T17:41:00.014Z,4.27
2022-09-06T17:44:05.712Z,4.50
2022-09-06T17:47:12.993Z,4.40
2022-09-06T17:50:17.614Z,4.87
2022-09-06T17:53:21.423Z,4.50
2022-09-06T17:56:25.722Z,4.27
2022-09-06T17:59:35.116Z,4.60
2022-09-06T18:02:39.587Z,4.50
2022-09-06T18:05:43.905Z,4.37
2022-09-06T18:08:48.786Z,4.27
2022-09-06T18:11:52.405Z,5.47
2022-09-06T18:14:57.986Z,6.30
2022-09-06T18:18:01.725Z,5.17
2022-09-06T18:21:08.014Z,5.57
2022-09-06T18:24:13.775Z,5.07
2022-09-06T18:27:17.729Z,4.80
2022-09-06T18:30:23.014Z,4.67
2022-09-06T18:33:26.863Z,5.17
2022-09-06T18:36:32.424Z,5.63
2022-09-06T18:39:36.360Z,4.93
2022-09-06T18:42:45.342Z,6.60
2022-09-06T18:45:51.669Z,5.60
2022-09-06T18:48:55.984Z,5.13
2022-09-06T18:52:00.184Z,5.70
2022-09-06T18:55:04.163Z,5.13
2022-09-06T18:58:07.906Z,5.90
2022-09-06T19:01:17.507Z,5.83
2022-09-06T19:04:21.940Z,5.83
2022-09-06T19:07:27.192Z,5.70
2022-09-06T19:10:32.799Z,5.63
2022-09-06T19:13:38.159Z,5.57
2022-09-06T19:16:45.263Z,5.70
2022-09-06T19:19:49.044Z,6.03
2022-09-06T19:22:53.135Z,6.60
2022-09-06T19:26:03.523Z,5.90
2022-09-06T19:29:13.103Z,6.00
2022-09-06T19:32:19.253Z,6.60
2022-09-06T19:35:23.494Z,6.97
2022-09-06T19:38:27.895Z,6.00
2022-09-06T19:41:39.141Z,6.67
2022-09-06T19:44:42.971Z,7.00
2022-09-06T19:47:48.257Z,6.17
2022-09-06T19:50:51.915Z,6.77
2022-09-06T19:53:58.122Z,6.77
2022-09-06T19:57:01.836Z,6.23
2022-09-06T20:00:07.198Z,6.27
2022-09-06T20:03:12.356Z,6.90
2022-09-06T20:06:16.062Z,6.90
2022-09-06T20:09:19.755Z,6.53
2022-09-06T20:12:24.437Z,6.63
2022-09-06T20:15:29.292Z,7.10
2022-09-06T20:18:35.459Z,6.77
2022-09-06T20:21:39.147Z,7.07
2022-09-06T20:24:42.920Z,6.40
2022-09-06T20:27:46.727Z,6.50
2022-09-06T20:30:50.619Z,7.20
2022-09-06T20:33:55.964Z,6.80
2022-09-06T20:36:59.607Z,6.37
2022-09-06T20:40:04.716Z,6.30
2022-09-06T20:43:08.527Z,7.20
2022-09-06T20:46:15.278Z,7.30
2022-09-06T20:49:21.641Z,7.00
2022-09-06T20:52:25.965Z,6.93
2022-09-06T20:55:29.731Z,7.30
2022-09-06T20:58:34.403Z,7.93
2022-09-06T21:01:41.976Z,7.33
2022-09-06T21:04:47.306Z,7.13
2022-09-06T21:07:51.012Z,7.33
2022-09-06T21:11:01.070Z,7.33
2022-09-06T21:14:06.573Z,7.43
2022-09-06T21:17:10.428Z,7.33
2022-09-06T21:20:15.768Z,7.07
2022-09-06T21:23:19.477Z,7.30
2022-09-06T21:26:24.376Z,6.97
2022-09-06T21:29:28.168Z,6.83
2022-09-06T21:32:31.828Z,7.40
2022-09-06T21:35:37.576Z,7.60
2022-09-06T21:38:45.370Z,6.33
2022-09-06T21:41:49.102Z,6.80
2022-09-06T21:44:53.519Z,6.80
2022-09-06T21:47:57.138Z,6.87
2022-09-06T21:51:02.268Z,7.13
2022-09-06T21:54:07.516Z,7.77
2022-09-06T21:57:11.200Z,7.07
2022-09-06T22:00:17.926Z,7.20
2022-09-06T22:03:21.722Z,7.07
2022-09-06T22:06:29.831Z,8.10
2022-09-06T22:09:33.491Z,6.77
2022-09-06T22:12:37.180Z,7.40
2022-09-06T22:15:41.435Z,7.37
2022-09-06T22:18:46.017Z,7.07
2022-09-06T22:21:54.525Z,7.03
2022-09-06T22:24:58.275Z,7.20
2022-09-06T22:28:02.008Z,7.20
2022-09-06T22:31:06.604Z,6.03
2022-09-06T22:34:10.690Z,7.40
2022-09-06T22:37:16.120Z,7.20
2022-09-06T22:40:19.786Z,7.93
2022-09-06T22:43:23.430Z,6.63
2022-09-06T22:46:27.428Z,6.83
2022-09-06T22:49:31.107Z,7.17
2022-09-06T22:52:36.208Z,6.63
2022-09-06T22:55:40.331Z,6.80
2022-09-06T22:58:44.070Z,7.43
2022-09-06T23:01:47.778Z,6.67
2022-09-06T23:04:51.550Z,7.37
2022-09-06T23:07:57.727Z,7.23
2022-09-06T23:11:08.070Z,7.17
2022-09-06T23:14:11.944Z,7.00
2022-09-06T23:17:15.604Z,6.87
2022-09-06T23:20:19.995Z,7.10
2022-09-06T23:23:25.122Z,6.87
2022-09-06T23:26:31.997Z,7.23
2022-09-06T23:29:35.699Z,6.77
2022-09-06T23:32:39.774Z,7.47
2022-09-06T23:35:43.894Z,7.13
2022-09-06T23:38:49.172Z,7.57
2022-09-06T23:41:52.775Z,7.37
2022-09-06T23:44:59.119Z,7.90
2022-09-06T23:48:02.881Z,8.30
2022-09-06T23:51:07.513Z,7.90
2022-09-06T23:54:12.759Z,7.80
2022-09-06T23:57:16.490Z,7.70
